sensor_id;sensor_type;location;lat;lon;timestamp;temperature;humidity
4840;DHT22;2434;48.486;7.964;2023-09-19T00:00:41;17.70;80.80
4840;DHT22;2434;48.486;7.964;2023-09-19T00:03:10;17.70;80.80
4840;DHT22;2434;48.486;7.964;2023-09-19T00:05:39;17.80;80.80
4840;DHT22;2434;48.486;7.964;2023-09-19T00:08:12;17.80;80.90
4840;DHT22;2434;48.486;7.964;2023-09-19T00:10:41;17.80;80.80
4840;DHT22;2434;48.486;7.964;2023-09-19T00:13:10;17.80;80.20
4840;DHT22;2434;48.486;7.964;2023-09-19T00:15:44;17.80;79.80
4840;DHT22;2434;48.486;7.964;2023-09-19T00:18:17;17.80;79.90
4840;DHT22;2434;48.486;7.964;2023-09-19T00:20:46;17.80;80.10
4840;DHT22;2434;48.486;7.964;2023-09-19T00:23:16;17.80;80.10
4840;DHT22;2434;48.486;7.964;2023-09-19T00:25:46;17.80;80.40
4840;DHT22;2434;48.486;7.964;2023-09-19T00:28:15;17.80;79.90
4840;DHT22;2434;48.486;7.964;2023-09-19T00:30:46;17.80;80.30
4840;DHT22;2434;48.486;7.964;2023-09-19T00:33:17;17.80;80.30
4840;DHT22;2434;48.486;7.964;2023-09-19T00:35:49;17.80;80.50
4840;DHT22;2434;48.486;7.964;2023-09-19T00:38:18;17.80;79.90
4840;DHT22;2434;48.486;7.964;2023-09-19T00:40:49;17.90;79.90
4840;DHT22;2434;48.486;7.964;2023-09-19T00:43:18;17.90;79.60
4840;DHT22;2434;48.486;7.964;2023-09-19T00:45:50;17.90;79.60
4840;DHT22;2434;48.486;7.964;2023-09-19T00:48:21;17.90;79.80
4840;DHT22;2434;48.486;7.964;2023-09-19T00:50:50;17.80;79.30
4840;DHT22;2434;48.486;7.964;2023-09-19T00:53:22;17.90;79.50
4840;DHT22;2434;48.486;7.964;2023-09-19T00:55:53;17.90;80.10
4840;DHT22;2434;48.486;7.964;2023-09-19T00:58:23;17.90;79.00
4840;DHT22;2434;48.486;7.964;2023-09-19T01:00:53;17.90;78.90
4840;DHT22;2434;48.486;7.964;2023-09-19T01:03:22;17.90;79.00
4840;DHT22;2434;48.486;7.964;2023-09-19T01:05:51;17.90;80.10
4840;DHT22;2434;48.486;7.964;2023-09-19T01:08:19;17.90;79.20
4840;DHT22;2434;48.486;7.964;2023-09-19T01:10:52;17.90;79.40
4840;DHT22;2434;48.486;7.964;2023-09-19T01:13:27;17.90;79.70
4840;DHT22;2434;48.486;7.964;2023-09-19T01:16:06;17.90;79.70
4840;DHT22;2434;48.486;7.964;2023-09-19T01:18:47;17.90;79.60
4840;DHT22;2434;48.486;7.964;2023-09-19T01:21:26;17.80;79.80
4840;DHT22;2434;48.486;7.964;2023-09-19T01:24:16;17.80;79.80
4840;DHT22;2434;48.486;7.964;2023-09-19T01:27:12;17.80;80.00
4840;DHT22;2434;48.486;7.964;2023-09-19T01:29:46;17.80;80.20
4840;DHT22;2434;48.486;7.964;2023-09-19T01:32:18;17.80;80.10
4840;DHT22;2434;48.486;7.964;2023-09-19T01:34:51;17.80;80.10
4840;DHT22;2434;48.486;7.964;2023-09-19T01:37:21;17.80;80.10
4840;DHT22;2434;48.486;7.964;2023-09-19T01:39:56;17.80;81.00
4840;DHT22;2434;48.486;7.964;2023-09-19T01:42:39;17.80;80.30
4840;DHT22;2434;48.486;7.964;2023-09-19T01:45:12;17.80;80.50
4840;DHT22;2434;48.486;7.964;2023-09-19T01:47:48;17.80;80.70
4840;DHT22;2434;48.486;7.964;2023-09-19T01:50:25;17.80;80.50
4840;DHT22;2434;48.486;7.964;2023-09-19T01:52:59;17.80;80.80
4840;DHT22;2434;48.486;7.964;2023-09-19T01:55:36;17.90;80.80
4840;DHT22;2434;48.486;7.964;2023-09-19T01:58:08;17.80;80.90
4840;DHT22;2434;48.486;7.964;2023-09-19T02:00:37;17.80;81.10
4840;DHT22;2434;48.486;7.964;2023-09-19T02:03:11;17.80;81.10
4840;DHT22;2434;48.486;7.964;2023-09-19T02:05:41;17.80;81.00
4840;DHT22;2434;48.486;7.964;2023-09-19T02:08:17;17.80;81.60
4840;DHT22;2434;48.486;7.964;2023-09-19T02:10:46;17.80;80.80
4840;DHT22;2434;48.486;7.964;2023-09-19T02:13:16;17.80;81.20
4840;DHT22;2434;48.486;7.964;2023-09-19T02:15:46;17.80;81.70
4840;DHT22;2434;48.486;7.964;2023-09-19T02:18:16;17.80;81.60
4840;DHT22;2434;48.486;7.964;2023-09-19T02:20:45;17.80;81.70
4840;DHT22;2434;48.486;7.964;2023-09-19T02:23:14;17.80;81.70
4840;DHT22;2434;48.486;7.964;2023-09-19T02:25:51;17.80;81.50
4840;DHT22;2434;48.486;7.964;2023-09-19T02:28:21;17.80;81.70
4840;DHT22;2434;48.486;7.964;2023-09-19T02:30:50;17.80;82.10
4840;DHT22;2434;48.486;7.964;2023-09-19T02:33:20;17.80;82.30
4840;DHT22;2434;48.486;7.964;2023-09-19T02:35:55;17.80;82.30
4840;DHT22;2434;48.486;7.964;2023-09-19T02:38:24;17.80;82.40
4840;DHT22;2434;48.486;7.964;2023-09-19T02:40:53;17.80;82.20
4840;DHT22;2434;48.486;7.964;2023-09-19T02:43:23;17.80;82.30
4840;DHT22;2434;48.486;7.964;2023-09-19T02:45:51;17.70;82.60
4840;DHT22;2434;48.486;7.964;2023-09-19T02:48:22;17.70;82.80
4840;DHT22;2434;48.486;7.964;2023-09-19T02:50:52;17.70;82.80
4840;DHT22;2434;48.486;7.964;2023-09-19T02:53:20;17.70;83.00
4840;DHT22;2434;48.486;7.964;2023-09-19T02:55:49;17.70;82.90
4840;DHT22;2434;48.486;7.964;2023-09-19T02:58:19;17.70;82.80
4840;DHT22;2434;48.486;7.964;2023-09-19T03:00:47;17.70;83.00
4840;DHT22;2434;48.486;7.964;2023-09-19T03:03:18;17.70;83.10
4840;DHT22;2434;48.486;7.964;2023-09-19T03:05:48;17.70;83.00
4840;DHT22;2434;48.486;7.964;2023-09-19T03:08:21;17.70;83.30
4840;DHT22;2434;48.486;7.964;2023-09-19T03:10:50;17.70;83.10
4840;DHT22;2434;48.486;7.964;2023-09-19T03:13:18;17.70;83.30
4840;DHT22;2434;48.486;7.964;2023-09-19T03:15:47;17.60;83.10
4840;DHT22;2434;48.486;7.964;2023-09-19T03:18:21;17.70;83.40
4840;DHT22;2434;48.486;7.964;2023-09-19T03:20:54;17.70;83.40
4840;DHT22;2434;48.486;7.964;2023-09-19T03:23:23;17.60;83.30
4840;DHT22;2434;48.486;7.964;2023-09-19T03:25:53;17.60;83.20
4840;DHT22;2434;48.486;7.964;2023-09-19T03:28:22;17.60;83.30
4840;DHT22;2434;48.486;7.964;2023-09-19T03:30:59;17.70;83.20
4840;DHT22;2434;48.486;7.964;2023-09-19T03:33:29;17.70;82.90
4840;DHT22;2434;48.486;7.964;2023-09-19T03:36:03;17.70;82.90
4840;DHT22;2434;48.486;7.964;2023-09-19T03:38:33;17.60;82.80
4840;DHT22;2434;48.486;7.964;2023-09-19T03:41:02;17.70;82.80
4840;DHT22;2434;48.486;7.964;2023-09-19T03:43:33;17.70;82.70
4840;DHT22;2434;48.486;7.964;2023-09-19T03:46:03;17.70;82.40
4840;DHT22;2434;48.486;7.964;2023-09-19T03:48:33;17.70;82.50
4840;DHT22;2434;48.486;7.964;2023-09-19T03:51:04;17.70;82.50
4840;DHT22;2434;48.486;7.964;2023-09-19T03:53:32;17.70;82.30
4840;DHT22;2434;48.486;7.964;2023-09-19T03:56:00;17.70;82.30
4840;DHT22;2434;48.486;7.964;2023-09-19T03:58:32;17.70;82.30
4840;DHT22;2434;48.486;7.964;2023-09-19T04:01:05;17.60;82.30
4840;DHT22;2434;48.486;7.964;2023-09-19T04:03:34;17.60;82.30
4840;DHT22;2434;48.486;7.964;2023-09-19T04:06:15;17.60;82.40
4840;DHT22;2434;48.486;7.964;2023-09-19T04:08:43;17.60;82.30
4840;DHT22;2434;48.486;7.964;2023-09-19T04:11:13;17.60;82.50
4840;DHT22;2434;48.486;7.964;2023-09-19T04:13:41;17.70;82.70
4840;DHT22;2434;48.486;7.964;2023-09-19T04:16:10;17.70;83.10
4840;DHT22;2434;48.486;7.964;2023-09-19T04:18:39;17.70;83.20
4840;DHT22;2434;48.486;7.964;2023-09-19T04:21:08;17.70;83.40
4840;DHT22;2434;48.486;7.964;2023-09-19T04:23:37;17.80;83.60
4840;DHT22;2434;48.486;7.964;2023-09-19T04:26:06;17.80;83.70
4840;DHT22;2434;48.486;7.964;2023-09-19T04:28:34;17.80;84.40
4840;DHT22;2434;48.486;7.964;2023-09-19T04:31:05;17.80;84.50
4840;DHT22;2434;48.486;7.964;2023-09-19T04:33:35;17.80;83.60
4840;DHT22;2434;48.486;7.964;2023-09-19T04:36:04;17.80;83.70
4840;DHT22;2434;48.486;7.964;2023-09-19T04:38:55;17.80;83.80
4840;DHT22;2434;48.486;7.964;2023-09-19T04:41:24;17.80;83.70
4840;DHT22;2434;48.486;7.964;2023-09-19T04:43:52;17.80;83.60
4840;DHT22;2434;48.486;7.964;2023-09-19T04:46:22;17.80;83.70
4840;DHT22;2434;48.486;7.964;2023-09-19T04:48:51;17.80;84.60
4840;DHT22;2434;48.486;7.964;2023-09-19T04:51:19;17.80;83.90
4840;DHT22;2434;48.486;7.964;2023-09-19T04:53:48;17.80;84.00
4840;DHT22;2434;48.486;7.964;2023-09-19T04:56:17;17.80;83.90
4840;DHT22;2434;48.486;7.964;2023-09-19T04:58:48;17.80;84.40
4840;DHT22;2434;48.486;7.964;2023-09-19T05:01:16;17.80;83.60
4840;DHT22;2434;48.486;7.964;2023-09-19T05:03:44;17.80;83.40
4840;DHT22;2434;48.486;7.964;2023-09-19T05:06:16;17.80;83.30
4840;DHT22;2434;48.486;7.964;2023-09-19T05:08:44;17.80;83.20
4840;DHT22;2434;48.486;7.964;2023-09-19T05:11:12;17.80;83.30
4840;DHT22;2434;48.486;7.964;2023-09-19T05:13:42;17.80;83.20
4840;DHT22;2434;48.486;7.964;2023-09-19T05:16:10;17.90;83.30
4840;DHT22;2434;48.486;7.964;2023-09-19T05:18:39;17.80;83.00
4840;DHT22;2434;48.486;7.964;2023-09-19T05:21:07;17.90;83.10
4840;DHT22;2434;48.486;7.964;2023-09-19T05:23:35;17.80;82.70
4840;DHT22;2434;48.486;7.964;2023-09-19T05:26:05;17.90;83.10
4840;DHT22;2434;48.486;7.964;2023-09-19T05:28:33;17.90;83.00
4840;DHT22;2434;48.486;7.964;2023-09-19T05:31:04;17.80;82.80
4840;DHT22;2434;48.486;7.964;2023-09-19T05:33:32;17.80;83.60
4840;DHT22;2434;48.486;7.964;2023-09-19T05:36:00;17.80;83.50
4840;DHT22;2434;48.486;7.964;2023-09-19T05:38:29;17.80;83.70
4840;DHT22;2434;48.486;7.964;2023-09-19T05:40:59;17.80;84.00
4840;DHT22;2434;48.486;7.964;2023-09-19T05:43:28;17.70;84.20
4840;DHT22;2434;48.486;7.964;2023-09-19T05:45:59;17.80;84.10
4840;DHT22;2434;48.486;7.964;2023-09-19T05:48:29;17.80;83.80
4840;DHT22;2434;48.486;7.964;2023-09-19T05:50:57;17.70;83.70
4840;DHT22;2434;48.486;7.964;2023-09-19T05:53:25;17.70;84.50
4840;DHT22;2434;48.486;7.964;2023-09-19T05:55:53;17.70;83.80
4840;DHT22;2434;48.486;7.964;2023-09-19T05:58:22;17.70;84.00
4840;DHT22;2434;48.486;7.964;2023-09-19T06:00:51;17.60;83.80
4840;DHT22;2434;48.486;7.964;2023-09-19T06:03:19;17.60;83.90
4840;DHT22;2434;48.486;7.964;2023-09-19T06:05:49;17.60;84.00
4840;DHT22;2434;48.486;7.964;2023-09-19T06:08:18;17.60;84.20
4840;DHT22;2434;48.486;7.964;2023-09-19T06:10:46;17.60;84.10
4840;DHT22;2434;48.486;7.964;2023-09-19T06:13:16;17.50;84.00
4840;DHT22;2434;48.486;7.964;2023-09-19T06:15:45;17.50;83.90
4840;DHT22;2434;48.486;7.964;2023-09-19T06:18:14;17.60;83.90
4840;DHT22;2434;48.486;7.964;2023-09-19T06:20:47;17.50;83.80
4840;DHT22;2434;48.486;7.964;2023-09-19T06:23:21;17.50;83.90
4840;DHT22;2434;48.486;7.964;2023-09-19T06:25:49;17.50;83.50
4840;DHT22;2434;48.486;7.964;2023-09-19T06:28:18;17.50;82.10
4840;DHT22;2434;48.486;7.964;2023-09-19T06:30:50;17.50;81.90
4840;DHT22;2434;48.486;7.964;2023-09-19T06:33:19;17.50;81.30
4840;DHT22;2434;48.486;7.964;2023-09-19T06:35:48;17.50;81.10
4840;DHT22;2434;48.486;7.964;2023-09-19T06:38:27;17.50;81.10
4840;DHT22;2434;48.486;7.964;2023-09-19T06:40:55;17.60;80.70
4840;DHT22;2434;48.486;7.964;2023-09-19T06:43:24;17.50;80.50
4840;DHT22;2434;48.486;7.964;2023-09-19T06:45:53;17.60;80.60
4840;DHT22;2434;48.486;7.964;2023-09-19T06:48:23;17.60;80.70
4840;DHT22;2434;48.486;7.964;2023-09-19T06:50:53;17.50;81.00
4840;DHT22;2434;48.486;7.964;2023-09-19T06:53:22;17.50;81.40
4840;DHT22;2434;48.486;7.964;2023-09-19T06:55:52;17.60;81.60
4840;DHT22;2434;48.486;7.964;2023-09-19T06:58:21;17.50;82.00
4840;DHT22;2434;48.486;7.964;2023-09-19T07:00:49;17.60;82.40
4840;DHT22;2434;48.486;7.964;2023-09-19T07:03:18;17.50;82.90
4840;DHT22;2434;48.486;7.964;2023-09-19T07:05:49;17.60;82.80
4840;DHT22;2434;48.486;7.964;2023-09-19T07:08:17;17.50;82.20
4840;DHT22;2434;48.486;7.964;2023-09-19T07:10:46;17.50;82.30
4840;DHT22;2434;48.486;7.964;2023-09-19T07:13:18;17.50;82.30
4840;DHT22;2434;48.486;7.964;2023-09-19T07:15:46;17.50;82.20
4840;DHT22;2434;48.486;7.964;2023-09-19T07:18:15;17.50;81.70
4840;DHT22;2434;48.486;7.964;2023-09-19T07:20:44;17.50;81.30
4840;DHT22;2434;48.486;7.964;2023-09-19T07:23:16;17.50;81.00
4840;DHT22;2434;48.486;7.964;2023-09-19T07:25:45;17.50;81.20
4840;DHT22;2434;48.486;7.964;2023-09-19T07:28:14;17.50;81.10
4840;DHT22;2434;48.486;7.964;2023-09-19T07:30:44;17.50;80.40
4840;DHT22;2434;48.486;7.964;2023-09-19T07:33:12;17.60;80.20
4840;DHT22;2434;48.486;7.964;2023-09-19T07:35:44;17.60;80.30
4840;DHT22;2434;48.486;7.964;2023-09-19T07:38:13;17.70;79.90
4840;DHT22;2434;48.486;7.964;2023-09-19T07:40:41;17.70;79.60
4840;DHT22;2434;48.486;7.964;2023-09-19T07:43:09;17.70;79.40
4840;DHT22;2434;48.486;7.964;2023-09-19T07:45:38;17.70;79.10
4840;DHT22;2434;48.486;7.964;2023-09-19T07:48:08;17.80;79.10
4840;DHT22;2434;48.486;7.964;2023-09-19T07:50:41;17.80;78.70
4840;DHT22;2434;48.486;7.964;2023-09-19T07:53:11;17.90;77.40
4840;DHT22;2434;48.486;7.964;2023-09-19T07:55:40;18.00;77.60
4840;DHT22;2434;48.486;7.964;2023-09-19T07:58:09;18.00;77.60
4840;DHT22;2434;48.486;7.964;2023-09-19T08:00:38;18.00;77.60
4840;DHT22;2434;48.486;7.964;2023-09-19T08:03:07;18.10;76.70
4840;DHT22;2434;48.486;7.964;2023-09-19T08:05:44;18.10;75.10
4840;DHT22;2434;48.486;7.964;2023-09-19T08:08:13;18.20;74.20
4840;DHT22;2434;48.486;7.964;2023-09-19T08:10:42;18.20;73.90
4840;DHT22;2434;48.486;7.964;2023-09-19T08:13:13;18.30;73.80
4840;DHT22;2434;48.486;7.964;2023-09-19T08:15:44;18.30;72.10
4840;DHT22;2434;48.486;7.964;2023-09-19T08:18:14;18.30;71.40
4840;DHT22;2434;48.486;7.964;2023-09-19T08:20:48;18.40;69.50
4840;DHT22;2434;48.486;7.964;2023-09-19T08:23:17;18.40;70.80
4840;DHT22;2434;48.486;7.964;2023-09-19T08:25:48;18.50;71.30
4840;DHT22;2434;48.486;7.964;2023-09-19T08:28:16;18.50;71.20
4840;DHT22;2434;48.486;7.964;2023-09-19T08:30:49;18.60;70.20
4840;DHT22;2434;48.486;7.964;2023-09-19T08:33:19;18.60;69.40
4840;DHT22;2434;48.486;7.964;2023-09-19T08:35:48;18.60;68.20
4840;DHT22;2434;48.486;7.964;2023-09-19T08:38:16;18.70;68.00
4840;DHT22;2434;48.486;7.964;2023-09-19T08:40:44;18.70;68.20
4840;DHT22;2434;48.486;7.964;2023-09-19T08:43:13;18.70;66.40
4840;DHT22;2434;48.486;7.964;2023-09-19T08:45:41;18.70;66.60
4840;DHT22;2434;48.486;7.964;2023-09-19T08:48:22;18.70;66.20
4840;DHT22;2434;48.486;7.964;2023-09-19T08:50:55;18.80;65.80
4840;DHT22;2434;48.486;7.964;2023-09-19T08:53:28;18.80;65.30
4840;DHT22;2434;48.486;7.964;2023-09-19T08:56:00;18.80;67.30
4840;DHT22;2434;48.486;7.964;2023-09-19T08:58:33;18.90;68.90
4840;DHT22;2434;48.486;7.964;2023-09-19T09:01:03;18.90;69.20
4840;DHT22;2434;48.486;7.964;2023-09-19T09:03:35;19.00;63.30
4840;DHT22;2434;48.486;7.964;2023-09-19T09:06:07;19.00;62.20
4840;DHT22;2434;48.486;7.964;2023-09-19T09:08:38;19.00;62.10
4840;DHT22;2434;48.486;7.964;2023-09-19T09:11:06;19.00;61.40
4840;DHT22;2434;48.486;7.964;2023-09-19T09:13:35;19.00;62.70
4840;DHT22;2434;48.486;7.964;2023-09-19T09:16:04;19.10;61.00
4840;DHT22;2434;48.486;7.964;2023-09-19T09:18:34;19.10;60.00
4840;DHT22;2434;48.486;7.964;2023-09-19T09:21:03;19.00;59.90
4840;DHT22;2434;48.486;7.964;2023-09-19T09:23:32;19.10;59.30
4840;DHT22;2434;48.486;7.964;2023-09-19T09:26:00;19.00;57.90
4840;DHT22;2434;48.486;7.964;2023-09-19T09:28:34;19.10;58.90
4840;DHT22;2434;48.486;7.964;2023-09-19T09:31:02;19.10;58.70
4840;DHT22;2434;48.486;7.964;2023-09-19T09:33:37;19.00;59.10
4840;DHT22;2434;48.486;7.964;2023-09-19T09:36:07;19.10;59.80
4840;DHT22;2434;48.486;7.964;2023-09-19T09:38:43;19.10;57.80
4840;DHT22;2434;48.486;7.964;2023-09-19T09:41:12;19.00;57.90
4840;DHT22;2434;48.486;7.964;2023-09-19T09:43:54;19.10;57.20
4840;DHT22;2434;48.486;7.964;2023-09-19T09:46:22;19.00;58.00
4840;DHT22;2434;48.486;7.964;2023-09-19T09:49:26;19.00;58.50
4840;DHT22;2434;48.486;7.964;2023-09-19T09:52:02;19.10;58.10
4840;DHT22;2434;48.486;7.964;2023-09-19T09:54:38;19.10;58.90
4840;DHT22;2434;48.486;7.964;2023-09-19T09:57:10;19.00;57.00
4840;DHT22;2434;48.486;7.964;2023-09-19T09:59:46;19.10;56.90
4840;DHT22;2434;48.486;7.964;2023-09-19T10:02:14;19.10;58.00
4840;DHT22;2434;48.486;7.964;2023-09-19T10:04:53;19.10;57.40
4840;DHT22;2434;48.486;7.964;2023-09-19T10:07:36;19.10;57.10
4840;DHT22;2434;48.486;7.964;2023-09-19T10:10:10;19.20;58.00
4840;DHT22;2434;48.486;7.964;2023-09-19T10:12:44;19.30;56.80
4840;DHT22;2434;48.486;7.964;2023-09-19T10:15:16;19.30;55.40
4840;DHT22;2434;48.486;7.964;2023-09-19T10:17:47;19.40;56.60
4840;DHT22;2434;48.486;7.964;2023-09-19T10:20:18;19.40;56.50
4840;DHT22;2434;48.486;7.964;2023-09-19T10:23:06;19.50;55.60
4840;DHT22;2434;48.486;7.964;2023-09-19T10:25:40;19.70;52.40
4840;DHT22;2434;48.486;7.964;2023-09-19T10:28:11;19.70;51.30
4840;DHT22;2434;48.486;7.964;2023-09-19T10:30:45;19.80;52.20
4840;DHT22;2434;48.486;7.964;2023-09-19T10:33:16;19.90;50.20
4840;DHT22;2434;48.486;7.964;2023-09-19T10:35:49;20.10;49.90
4840;DHT22;2434;48.486;7.964;2023-09-19T10:38:19;20.20;50.80
4840;DHT22;2434;48.486;7.964;2023-09-19T10:40:51;20.40;48.60
4840;DHT22;2434;48.486;7.964;2023-09-19T10:43:21;20.50;48.70
4840;DHT22;2434;48.486;7.964;2023-09-19T10:45:50;20.70;46.70
4840;DHT22;2434;48.486;7.964;2023-09-19T10:48:20;20.70;46.80
4840;DHT22;2434;48.486;7.964;2023-09-19T10:50:58;20.70;45.00
4840;DHT22;2434;48.486;7.964;2023-09-19T10:53:41;20.70;46.10
4840;DHT22;2434;48.486;7.964;2023-09-19T10:56:17;20.80;45.70
4840;DHT22;2434;48.486;7.964;2023-09-19T10:58:47;20.80;44.60
4840;DHT22;2434;48.486;7.964;2023-09-19T11:01:16;20.90;45.80
4840;DHT22;2434;48.486;7.964;2023-09-19T11:03:45;21.00;46.40
4840;DHT22;2434;48.486;7.964;2023-09-19T11:06:17;21.10;45.70
4840;DHT22;2434;48.486;7.964;2023-09-19T11:08:57;21.20;45.30
4840;DHT22;2434;48.486;7.964;2023-09-19T11:11:48;21.30;46.50
4840;DHT22;2434;48.486;7.964;2023-09-19T11:14:40;21.40;47.20
4840;DHT22;2434;48.486;7.964;2023-09-19T11:17:32;21.50;44.00
4840;DHT22;2434;48.486;7.964;2023-09-19T11:20:19;21.50;43.90
4840;DHT22;2434;48.486;7.964;2023-09-19T11:23:28;21.40;42.80
4840;DHT22;2434;48.486;7.964;2023-09-19T11:25:57;21.40;44.80
4840;DHT22;2434;48.486;7.964;2023-09-19T11:28:30;21.40;44.10
4840;DHT22;2434;48.486;7.964;2023-09-19T11:30:58;21.30;44.50
4840;DHT22;2434;48.486;7.964;2023-09-19T11:33:28;21.40;42.90
4840;DHT22;2434;48.486;7.964;2023-09-19T11:35:59;21.40;42.10
4840;DHT22;2434;48.486;7.964;2023-09-19T11:39:00;21.60;40.60
4840;DHT22;2434;48.486;7.964;2023-09-19T11:41:41;21.70;41.20
4840;DHT22;2434;48.486;7.964;2023-09-19T11:44:33;21.70;41.20
4840;DHT22;2434;48.486;7.964;2023-09-19T11:47:06;21.70;42.30
4840;DHT22;2434;48.486;7.964;2023-09-19T11:49:40;21.80;42.80
4840;DHT22;2434;48.486;7.964;2023-09-19T11:52:10;21.80;40.60
4840;DHT22;2434;48.486;7.964;2023-09-19T11:54:42;22.00;39.80
4840;DHT22;2434;48.486;7.964;2023-09-19T11:57:20;22.00;39.60
4840;DHT22;2434;48.486;7.964;2023-09-19T11:59:48;22.00;39.40
4840;DHT22;2434;48.486;7.964;2023-09-19T12:02:38;22.10;39.10
4840;DHT22;2434;48.486;7.964;2023-09-19T12:05:08;22.20;37.20
4840;DHT22;2434;48.486;7.964;2023-09-19T12:07:42;22.40;37.20
4840;DHT22;2434;48.486;7.964;2023-09-19T12:10:14;22.40;36.40
4840;DHT22;2434;48.486;7.964;2023-09-19T12:12:47;22.40;37.20
4840;DHT22;2434;48.486;7.964;2023-09-19T12:15:23;22.60;35.60
4840;DHT22;2434;48.486;7.964;2023-09-19T12:17:55;22.70;36.40
4840;DHT22;2434;48.486;7.964;2023-09-19T12:20:24;22.70;33.10
4840;DHT22;2434;48.486;7.964;2023-09-19T12:22:56;22.80;33.80
4840;DHT22;2434;48.486;7.964;2023-09-19T12:25:26;22.80;33.50
4840;DHT22;2434;48.486;7.964;2023-09-19T12:27:55;22.90;35.40
4840;DHT22;2434;48.486;7.964;2023-09-19T12:30:27;23.00;34.60
4840;DHT22;2434;48.486;7.964;2023-09-19T12:33:00;23.20;32.10
4840;DHT22;2434;48.486;7.964;2023-09-19T12:35:32;23.30;32.70
4840;DHT22;2434;48.486;7.964;2023-09-19T12:38:02;23.40;31.10
4840;DHT22;2434;48.486;7.964;2023-09-19T12:40:32;23.50;29.80
4840;DHT22;2434;48.486;7.964;2023-09-19T12:43:05;23.50;30.70
4840;DHT22;2434;48.486;7.964;2023-09-19T12:45:35;23.50;30.90
4840;DHT22;2434;48.486;7.964;2023-09-19T12:48:20;23.40;30.30
4840;DHT22;2434;48.486;7.964;2023-09-19T12:51:03;23.40;31.00
4840;DHT22;2434;48.486;7.964;2023-09-19T12:53:36;23.50;30.20
4840;DHT22;2434;48.486;7.964;2023-09-19T12:56:10;23.60;30.00
4840;DHT22;2434;48.486;7.964;2023-09-19T12:58:51;23.70;29.40
4840;DHT22;2434;48.486;7.964;2023-09-19T13:01:21;23.70;30.20
4840;DHT22;2434;48.486;7.964;2023-09-19T13:04:11;23.60;29.20
4840;DHT22;2434;48.486;7.964;2023-09-19T13:06:40;23.60;29.60
4840;DHT22;2434;48.486;7.964;2023-09-19T13:09:10;23.50;29.20
4840;DHT22;2434;48.486;7.964;2023-09-19T13:11:41;23.50;29.60
4840;DHT22;2434;48.486;7.964;2023-09-19T13:14:18;23.60;30.50
4840;DHT22;2434;48.486;7.964;2023-09-19T13:16:57;23.60;31.70
4840;DHT22;2434;48.486;7.964;2023-09-19T13:19:40;23.70;31.00
4840;DHT22;2434;48.486;7.964;2023-09-19T13:22:35;23.70;31.00
4840;DHT22;2434;48.486;7.964;2023-09-19T13:25:06;23.90;30.00
4840;DHT22;2434;48.486;7.964;2023-09-19T13:27:36;24.00;29.70
4840;DHT22;2434;48.486;7.964;2023-09-19T13:30:05;24.00;28.40
4840;DHT22;2434;48.486;7.964;2023-09-19T13:32:34;24.10;27.40
4840;DHT22;2434;48.486;7.964;2023-09-19T13:35:03;24.20;27.20
4840;DHT22;2434;48.486;7.964;2023-09-19T13:37:36;24.30;27.50
4840;DHT22;2434;48.486;7.964;2023-09-19T13:40:08;24.30;27.50
4840;DHT22;2434;48.486;7.964;2023-09-19T13:42:38;24.30;27.90
4840;DHT22;2434;48.486;7.964;2023-09-19T13:45:07;24.30;28.90
4840;DHT22;2434;48.486;7.964;2023-09-19T13:47:39;24.30;29.10
4840;DHT22;2434;48.486;7.964;2023-09-19T13:50:09;24.30;28.20
4840;DHT22;2434;48.486;7.964;2023-09-19T13:52:37;24.20;28.40
4840;DHT22;2434;48.486;7.964;2023-09-19T13:55:06;24.30;28.30
4840;DHT22;2434;48.486;7.964;2023-09-19T13:57:34;24.40;28.90
4840;DHT22;2434;48.486;7.964;2023-09-19T14:00:06;24.40;26.50
4840;DHT22;2434;48.486;7.964;2023-09-19T14:02:40;24.50;26.80
4840;DHT22;2434;48.486;7.964;2023-09-19T14:05:10;24.50;26.50
4840;DHT22;2434;48.486;7.964;2023-09-19T14:07:39;24.30;26.40
4840;DHT22;2434;48.486;7.964;2023-09-19T14:10:09;24.30;27.10
4840;DHT22;2434;48.486;7.964;2023-09-19T14:12:38;24.30;27.40
4840;DHT22;2434;48.486;7.964;2023-09-19T14:15:09;24.10;28.20
4840;DHT22;2434;48.486;7.964;2023-09-19T14:17:38;24.00;27.20
4840;DHT22;2434;48.486;7.964;2023-09-19T14:20:10;24.10;28.00
4840;DHT22;2434;48.486;7.964;2023-09-19T14:22:38;24.20;28.20
4840;DHT22;2434;48.486;7.964;2023-09-19T14:25:07;24.30;28.30
4840;DHT22;2434;48.486;7.964;2023-09-19T14:27:36;24.40;28.20
4840;DHT22;2434;48.486;7.964;2023-09-19T14:30:06;24.40;28.10
4840;DHT22;2434;48.486;7.964;2023-09-19T14:32:35;24.40;26.90
4840;DHT22;2434;48.486;7.964;2023-09-19T14:35:05;24.30;27.20
4840;DHT22;2434;48.486;7.964;2023-09-19T14:37:34;24.30;27.20
4840;DHT22;2434;48.486;7.964;2023-09-19T14:40:03;24.30;27.00
4840;DHT22;2434;48.486;7.964;2023-09-19T14:42:36;24.30;27.60
4840;DHT22;2434;48.486;7.964;2023-09-19T14:45:05;24.30;28.10
4840;DHT22;2434;48.486;7.964;2023-09-19T14:47:35;24.30;28.70
4840;DHT22;2434;48.486;7.964;2023-09-19T14:50:05;24.30;27.70
4840;DHT22;2434;48.486;7.964;2023-09-19T14:52:34;24.20;27.60
4840;DHT22;2434;48.486;7.964;2023-09-19T14:55:04;24.10;28.10
4840;DHT22;2434;48.486;7.964;2023-09-19T14:57:33;24.00;28.20
4840;DHT22;2434;48.486;7.964;2023-09-19T15:00:01;23.90;28.70
4840;DHT22;2434;48.486;7.964;2023-09-19T15:02:33;23.90;28.90
4840;DHT22;2434;48.486;7.964;2023-09-19T15:05:03;23.90;29.00
4840;DHT22;2434;48.486;7.964;2023-09-19T15:07:35;23.90;27.90
4840;DHT22;2434;48.486;7.964;2023-09-19T15:10:05;23.90;27.90
4840;DHT22;2434;48.486;7.964;2023-09-19T15:12:37;23.90;28.10
4840;DHT22;2434;48.486;7.964;2023-09-19T15:15:07;23.90;27.40
4840;DHT22;2434;48.486;7.964;2023-09-19T15:17:36;23.90;27.90
4840;DHT22;2434;48.486;7.964;2023-09-19T15:20:07;23.90;26.80
4840;DHT22;2434;48.486;7.964;2023-09-19T15:22:36;24.00;28.10
4840;DHT22;2434;48.486;7.964;2023-09-19T15:25:05;23.90;28.10
4840;DHT22;2434;48.486;7.964;2023-09-19T15:27:33;23.90;28.40
4840;DHT22;2434;48.486;7.964;2023-09-19T15:30:05;23.90;29.10
4840;DHT22;2434;48.486;7.964;2023-09-19T15:32:33;23.90;29.50
4840;DHT22;2434;48.486;7.964;2023-09-19T15:35:02;23.90;30.40
4840;DHT22;2434;48.486;7.964;2023-09-19T15:37:32;23.90;30.10
4840;DHT22;2434;48.486;7.964;2023-09-19T15:40:01;23.90;30.80
4840;DHT22;2434;48.486;7.964;2023-09-19T15:42:29;23.90;31.80
4840;DHT22;2434;48.486;7.964;2023-09-19T15:44:58;23.90;32.90
4840;DHT22;2434;48.486;7.964;2023-09-19T15:47:26;23.80;31.20
4840;DHT22;2434;48.486;7.964;2023-09-19T15:49:56;23.70;31.90
4840;DHT22;2434;48.486;7.964;2023-09-19T15:52:24;23.60;32.10
4840;DHT22;2434;48.486;7.964;2023-09-19T15:54:54;23.60;32.20
4840;DHT22;2434;48.486;7.964;2023-09-19T15:57:22;23.60;32.10
4840;DHT22;2434;48.486;7.964;2023-09-19T15:59:51;23.60;30.90
4840;DHT22;2434;48.486;7.964;2023-09-19T16:02:20;23.60;30.40
4840;DHT22;2434;48.486;7.964;2023-09-19T16:04:48;23.60;31.30
4840;DHT22;2434;48.486;7.964;2023-09-19T16:07:17;23.60;31.50
4840;DHT22;2434;48.486;7.964;2023-09-19T16:09:45;23.60;31.40
4840;DHT22;2434;48.486;7.964;2023-09-19T16:12:15;23.60;31.70
4840;DHT22;2434;48.486;7.964;2023-09-19T16:14:43;23.60;32.30
4840;DHT22;2434;48.486;7.964;2023-09-19T16:17:11;23.50;32.20
4840;DHT22;2434;48.486;7.964;2023-09-19T16:19:39;23.50;32.20
4840;DHT22;2434;48.486;7.964;2023-09-19T16:22:10;23.50;32.20
4840;DHT22;2434;48.486;7.964;2023-09-19T16:24:38;23.50;31.90
4840;DHT22;2434;48.486;7.964;2023-09-19T16:27:07;23.50;31.30
4840;DHT22;2434;48.486;7.964;2023-09-19T16:29:37;23.50;31.40